sensor_id;sensor_type;location;lat;lon;timestamp;pressure;altitude;pressure_sealevel;temperature;humidity
3844;BME280;1937;51.444;6.484;2023-02-28T00:01:41;66115.97;;;0.35;78.51
3844;BME280;1937;51.444;6.484;2023-02-28T00:04:10;66117.06;;;0.10;79.02
3844;BME280;1937;51.444;6.484;2023-02-28T00:06:40;66092.81;;;-0.05;79.38
3844;BME280;1937;51.444;6.484;2023-02-28T00:09:11;66047.19;;;-0.10;79.88
3844;BME280;1937;51.444;6.484;2023-02-28T00:11:40;66067.66;;;-0.01;80.34
3844;BME280;1937;51.444;6.484;2023-02-28T00:14:08;66155.47;;;-0.06;80.40
3844;BME280;1937;51.444;6.484;2023-02-28T00:16:36;66114.44;;;0.05;80.20
3844;BME280;1937;51.444;6.484;2023-02-28T00:19:06;66134.09;;;0.05;79.92
3844;BME280;1937;51.444;6.484;2023-02-28T00:21:35;66084.97;;;0.08;80.32
3844;BME280;1937;51.444;6.484;2023-02-28T00:24:04;66097.28;;;-0.06;80.28
3844;BME280;1937;51.444;6.484;2023-02-28T00:26:34;66043.66;;;-0.17;81.07
3844;BME280;1937;51.444;6.484;2023-02-28T00:29:03;66034.66;;;-0.05;81.00
3844;BME280;1937;51.444;6.484;2023-02-28T00:31:31;66179.63;;;-0.07;80.99
3844;BME280;1937;51.444;6.484;2023-02-28T00:34:00;66131.19;;;0.13;81.38
3844;BME280;1937;51.444;6.484;2023-02-28T00:36:28;66044.22;;;-0.17;81.78
3844;BME280;1937;51.444;6.484;2023-02-28T00:38:57;66011.94;;;-0.16;80.85
3844;BME280;1937;51.444;6.484;2023-02-28T00:41:25;66087.09;;;-0.21;81.63
3844;BME280;1937;51.444;6.484;2023-02-28T00:43:55;66143.59;;;0.26;80.89
3844;BME280;1937;51.444;6.484;2023-02-28T00:46:24;66100.53;;;-0.12;81.09
3844;BME280;1937;51.444;6.484;2023-02-28T00:48:53;66141.41;;;0.29;80.38
3844;BME280;1937;51.444;6.484;2023-02-28T00:51:22;66110.28;;;-0.03;81.27
3844;BME280;1937;51.444;6.484;2023-02-28T00:53:52;66054.53;;;0.04;81.53
3844;BME280;1937;51.444;6.484;2023-02-28T00:56:23;66113.28;;;0.04;81.74
3844;BME280;1937;51.444;6.484;2023-02-28T00:58:52;66189.34;;;0.24;80.62
3844;BME280;1937;51.444;6.484;2023-02-28T01:01:25;66097.84;;;0.06;81.20
3844;BME280;1937;51.444;6.484;2023-02-28T01:03:55;66039.72;;;-0.05;80.16
3844;BME280;1937;51.444;6.484;2023-02-28T01:06:23;66047.81;;;-0.31;80.36
3844;BME280;1937;51.444;6.484;2023-02-28T01:08:52;66053.41;;;-0.09;80.54
3844;BME280;1937;51.444;6.484;2023-02-28T01:11:20;66109.13;;;-0.04;80.62
3844;BME280;1937;51.444;6.484;2023-02-28T01:13:50;66101.78;;;0.05;80.59
3844;BME280;1937;51.444;6.484;2023-02-28T01:16:19;66090.75;;;-0.09;80.53
3844;BME280;1937;51.444;6.484;2023-02-28T01:18:50;66126.16;;;-0.09;80.75
3844;BME280;1937;51.444;6.484;2023-02-28T01:21:21;66064.16;;;-0.30;81.20
3844;BME280;1937;51.444;6.484;2023-02-28T01:23:51;66082.97;;;-0.41;81.27
3844;BME280;1937;51.444;6.484;2023-02-28T01:26:21;66147.88;;;-0.39;81.43
3844;BME280;1937;51.444;6.484;2023-02-28T01:28:51;66073.88;;;-0.22;81.08
3844;BME280;1937;51.444;6.484;2023-02-28T01:31:20;66105.03;;;-0.23;81.10
3844;BME280;1937;51.444;6.484;2023-02-28T01:33:51;66054.59;;;-0.30;80.62
3844;BME280;1937;51.444;6.484;2023-02-28T01:36:21;66043.25;;;-0.35;80.63
3844;BME280;1937;51.444;6.484;2023-02-28T01:38:53;66087.13;;;-0.32;80.43
3844;BME280;1937;51.444;6.484;2023-02-28T01:41:24;66105.81;;;-0.14;80.18
3844;BME280;1937;51.444;6.484;2023-02-28T01:43:56;66103.19;;;-0.18;79.62
3844;BME280;1937;51.444;6.484;2023-02-28T01:46:26;66067.38;;;-0.36;79.99
3844;BME280;1937;51.444;6.484;2023-02-28T01:48:59;66066.78;;;-0.26;80.20
3844;BME280;1937;51.444;6.484;2023-02-28T01:51:31;66031.75;;;-0.46;80.61
3844;BME280;1937;51.444;6.484;2023-02-28T01:54:05;66045.09;;;-0.52;81.39
3844;BME280;1937;51.444;6.484;2023-02-28T01:56:45;66097.81;;;-0.54;81.25
3844;BME280;1937;51.444;6.484;2023-02-28T01:59:17;66007.75;;;-0.40;81.29
3844;BME280;1937;51.444;6.484;2023-02-28T02:01:50;66072.28;;;-0.41;81.13
3844;BME280;1937;51.444;6.484;2023-02-28T02:04:21;66110.44;;;-0.54;81.38
3844;BME280;1937;51.444;6.484;2023-02-28T02:06:51;66105.50;;;-0.72;81.51
3844;BME280;1937;51.444;6.484;2023-02-28T02:09:20;65989.88;;;-0.60;81.83
3844;BME280;1937;51.444;6.484;2023-02-28T02:11:50;66068.75;;;-0.37;81.32
3844;BME280;1937;51.444;6.484;2023-02-28T02:14:36;66126.53;;;-0.40;81.27
3844;BME280;1937;51.444;6.484;2023-02-28T02:17:14;66030.72;;;-0.42;81.36
3844;BME280;1937;51.444;6.484;2023-02-28T02:23:07;66061.50;;;-0.46;81.52
3844;BME280;1937;51.444;6.484;2023-02-28T02:25:47;66028.44;;;-0.55;82.27
3844;BME280;1937;51.444;6.484;2023-02-28T02:28:49;66018.13;;;-0.75;82.68
3844;BME280;1937;51.444;6.484;2023-02-28T02:31:33;66050.97;;;-0.64;82.07
3844;BME280;1937;51.444;6.484;2023-02-28T02:34:35;66015.97;;;-0.73;82.62
3844;BME280;1937;51.444;6.484;2023-02-28T02:37:13;66031.59;;;-0.77;82.77
3844;BME280;1937;51.444;6.484;2023-02-28T02:39:48;66028.94;;;-0.82;82.84
3844;BME280;1937;51.444;6.484;2023-02-28T02:42:21;65999.91;;;-0.98;82.67
3844;BME280;1937;51.444;6.484;2023-02-28T02:44:55;66052.13;;;-0.86;82.78
3844;BME280;1937;51.444;6.484;2023-02-28T02:47:29;66013.22;;;-0.93;83.37
3844;BME280;1937;51.444;6.484;2023-02-28T02:50:04;66017.34;;;-0.96;82.70
3844;BME280;1937;51.444;6.484;2023-02-28T02:52:38;66019.31;;;-0.97;83.60
3844;BME280;1937;51.444;6.484;2023-02-28T02:55:10;65992.22;;;-1.03;83.42
3844;BME280;1937;51.444;6.484;2023-02-28T02:57:43;66020.78;;;-0.93;83.91
3844;BME280;1937;51.444;6.484;2023-02-28T03:00:18;66013.69;;;-0.97;84.30
3844;BME280;1937;51.444;6.484;2023-02-28T03:02:49;65919.41;;;-1.45;84.45
3844;BME280;1937;51.444;6.484;2023-02-28T03:05:26;65984.22;;;-1.21;83.78
3844;BME280;1937;51.444;6.484;2023-02-28T03:07:55;66024.25;;;-1.12;83.89
3844;BME280;1937;51.444;6.484;2023-02-28T03:10:32;66000.13;;;-1.11;83.80
3844;BME280;1937;51.444;6.484;2023-02-28T03:16:28;65978.94;;;-1.30;84.43
3844;BME280;1937;51.444;6.484;2023-02-28T03:19:07;65970.22;;;-1.31;84.80
3844;BME280;1937;51.444;6.484;2023-02-28T03:21:46;65953.94;;;-1.32;84.64
3844;BME280;1937;51.444;6.484;2023-02-28T03:24:22;65971.03;;;-1.44;84.91
3844;BME280;1937;51.444;6.484;2023-02-28T03:26:58;65928.47;;;-1.30;84.45
3844;BME280;1937;51.444;6.484;2023-02-28T03:29:35;65981.47;;;-1.30;84.73
3844;BME280;1937;51.444;6.484;2023-02-28T03:32:08;66022.38;;;-1.52;84.41
3844;BME280;1937;51.444;6.484;2023-02-28T03:34:46;65972.75;;;-1.53;85.17
3844;BME280;1937;51.444;6.484;2023-02-28T03:37:20;65942.59;;;-1.60;85.53
3844;BME280;1937;51.444;6.484;2023-02-28T03:39:53;65943.03;;;-1.86;85.52
3844;BME280;1937;51.444;6.484;2023-02-28T03:42:27;65923.13;;;-1.77;85.35
3844;BME280;1937;51.444;6.484;2023-02-28T03:44:59;65890.69;;;-2.08;85.91
3844;BME280;1937;51.444;6.484;2023-02-28T03:47:31;65902.81;;;-1.82;86.01
3844;BME280;1937;51.444;6.484;2023-02-28T03:50:05;65882.44;;;-1.91;85.79
3844;BME280;1937;51.444;6.484;2023-02-28T03:52:42;65986.47;;;-1.97;85.49
3844;BME280;1937;51.444;6.484;2023-02-28T03:55:14;65912.91;;;-2.04;85.87
3844;BME280;1937;51.444;6.484;2023-02-28T03:57:50;65929.75;;;-1.91;85.92
3844;BME280;1937;51.444;6.484;2023-02-28T04:00:24;65920.56;;;-1.99;85.76
3844;BME280;1937;51.444;6.484;2023-02-28T04:02:56;65920.25;;;-1.91;86.26
3844;BME280;1937;51.444;6.484;2023-02-28T04:05:25;65929.75;;;-2.02;86.24
3844;BME280;1937;51.444;6.484;2023-02-28T04:07:54;65857.25;;;-2.13;86.80
3844;BME280;1937;51.444;6.484;2023-02-28T04:10:31;65875.31;;;-2.28;86.49
3844;BME280;1937;51.444;6.484;2023-02-28T04:12:59;65884.50;;;-2.20;87.74
3844;BME280;1937;51.444;6.484;2023-02-28T04:15:28;65954.16;;;-2.12;87.45
3844;BME280;1937;51.444;6.484;2023-02-28T04:17:56;65982.97;;;-2.22;86.94
3844;BME280;1937;51.444;6.484;2023-02-28T04:20:26;65924.91;;;-2.16;86.94
3844;BME280;1937;51.444;6.484;2023-02-28T04:22:55;65852.88;;;-2.08;86.67
3844;BME280;1937;51.444;6.484;2023-02-28T04:25:24;65867.31;;;-2.13;86.14
3844;BME280;1937;51.444;6.484;2023-02-28T04:27:52;65873.25;;;-2.21;86.47
3844;BME280;1937;51.444;6.484;2023-02-28T04:30:22;65877.63;;;-2.15;86.42
3844;BME280;1937;51.444;6.484;2023-02-28T04:32:50;65917.84;;;-2.09;86.41
3844;BME280;1937;51.444;6.484;2023-02-28T04:35:20;65932.84;;;-1.91;85.84
3844;BME280;1937;51.444;6.484;2023-02-28T04:37:49;65900.88;;;-2.03;86.34
3844;BME280;1937;51.444;6.484;2023-02-28T04:40:19;65902.94;;;-2.11;86.79
3844;BME280;1937;51.444;6.484;2023-02-28T04:42:48;65858.47;;;-2.41;87.21
3844;BME280;1937;51.444;6.484;2023-02-28T04:45:17;65911.53;;;-1.92;86.42
3844;BME280;1937;51.444;6.484;2023-02-28T04:47:45;65905.91;;;-2.03;86.01
3844;BME280;1937;51.444;6.484;2023-02-28T04:50:15;65972.03;;;-1.92;85.98
3844;BME280;1937;51.444;6.484;2023-02-28T04:52:44;65929.97;;;-1.93;85.68
3844;BME280;1937;51.444;6.484;2023-02-28T04:55:12;65974.09;;;-1.99;85.42
3844;BME280;1937;51.444;6.484;2023-02-28T04:57:42;65875.78;;;-2.21;85.68
3844;BME280;1937;51.444;6.484;2023-02-28T05:00:13;65907.97;;;-1.99;85.64
3844;BME280;1937;51.444;6.484;2023-02-28T05:02:44;65946.91;;;-2.10;85.29
3844;BME280;1937;51.444;6.484;2023-02-28T05:05:13;65879.56;;;-2.16;85.23
3844;BME280;1937;51.444;6.484;2023-02-28T05:07:50;65915.41;;;-2.15;85.67
3844;BME280;1937;51.444;6.484;2023-02-28T05:10:21;65901.34;;;-2.19;85.43
3844;BME280;1937;51.444;6.484;2023-02-28T05:12:51;65870.28;;;-2.06;85.36
3844;BME280;1937;51.444;6.484;2023-02-28T05:15:20;65884.03;;;-2.05;84.54
3844;BME280;1937;51.444;6.484;2023-02-28T05:17:49;65883.59;;;-2.12;84.39
3844;BME280;1937;51.444;6.484;2023-02-28T05:20:17;65921.25;;;-2.17;84.42
3844;BME280;1937;51.444;6.484;2023-02-28T05:22:46;65880.50;;;-2.01;84.03
3844;BME280;1937;51.444;6.484;2023-02-28T05:25:17;65943.00;;;-2.31;84.50
3844;BME280;1937;51.444;6.484;2023-02-28T05:27:47;65904.88;;;-2.22;83.83
3844;BME280;1937;51.444;6.484;2023-02-28T05:30:18;65875.66;;;-2.03;83.21
3844;BME280;1937;51.444;6.484;2023-02-28T05:32:51;65889.88;;;-1.95;82.86
3844;BME280;1937;51.444;6.484;2023-02-28T05:35:19;65922.75;;;-2.02;82.51
3844;BME280;1937;51.444;6.484;2023-02-28T05:37:48;65973.41;;;-1.82;81.54
3844;BME280;1937;51.444;6.484;2023-02-28T05:40:16;65888.28;;;-2.03;81.31
3844;BME280;1937;51.444;6.484;2023-02-28T05:42:47;65921.03;;;-2.15;81.05
3844;BME280;1937;51.444;6.484;2023-02-28T05:45:17;65891.94;;;-2.02;80.41
3844;BME280;1937;51.444;6.484;2023-02-28T05:47:46;65967.47;;;-1.85;79.92
3844;BME280;1937;51.444;6.484;2023-02-28T05:50:17;65880.00;;;-1.86;79.53
3844;BME280;1937;51.444;6.484;2023-02-28T05:52:48;65926.66;;;-1.70;78.95
3844;BME280;1937;51.444;6.484;2023-02-28T05:55:17;65990.72;;;-1.73;78.47
3844;BME280;1937;51.444;6.484;2023-02-28T05:57:46;65935.03;;;-1.60;77.28
3844;BME280;1937;51.444;6.484;2023-02-28T06:00:15;65990.97;;;-1.53;77.38
3844;BME280;1937;51.444;6.484;2023-02-28T06:02:45;65965.84;;;-1.71;77.33
3844;BME280;1937;51.444;6.484;2023-02-28T06:05:15;65942.25;;;-1.51;77.09
3844;BME280;1937;51.444;6.484;2023-02-28T06:07:44;65918.41;;;-1.63;77.16
3844;BME280;1937;51.444;6.484;2023-02-28T06:10:13;65940.50;;;-1.53;77.24
3844;BME280;1937;51.444;6.484;2023-02-28T06:12:43;65936.03;;;-1.52;77.23
3844;BME280;1937;51.444;6.484;2023-02-28T06:15:14;65907.72;;;-1.64;77.61
3844;BME280;1937;51.444;6.484;2023-02-28T06:17:45;65908.91;;;-1.85;77.85
3844;BME280;1937;51.444;6.484;2023-02-28T06:20:14;65859.75;;;-2.02;79.23
3844;BME280;1937;51.444;6.484;2023-02-28T06:22:42;65916.47;;;-1.85;78.66
3844;BME280;1937;51.444;6.484;2023-02-28T06:25:11;65837.06;;;-2.02;79.22
3844;BME280;1937;51.444;6.484;2023-02-28T06:27:39;65871.09;;;-1.96;79.59
3844;BME280;1937;51.444;6.484;2023-02-28T06:30:09;65832.94;;;-1.99;79.91
3844;BME280;1937;51.444;6.484;2023-02-28T06:32:38;65882.88;;;-2.06;80.34
3844;BME280;1937;51.444;6.484;2023-02-28T06:35:09;65920.25;;;-1.91;79.85
3844;BME280;1937;51.444;6.484;2023-02-28T06:37:37;65960.00;;;-1.91;80.19
3844;BME280;1937;51.444;6.484;2023-02-28T06:40:07;65842.94;;;-2.37;80.55
3844;BME280;1937;51.444;6.484;2023-02-28T06:42:36;65865.34;;;-2.35;81.60
3844;BME280;1937;51.444;6.484;2023-02-28T06:45:05;65843.72;;;-2.27;81.54
3844;BME280;1937;51.444;6.484;2023-02-28T06:47:36;65837.88;;;-2.03;81.07
3844;BME280;1937;51.444;6.484;2023-02-28T06:50:05;65836.16;;;-2.05;80.51
3844;BME280;1937;51.444;6.484;2023-02-28T06:52:36;65887.81;;;-1.99;81.03
3844;BME280;1937;51.444;6.484;2023-02-28T06:55:06;65916.09;;;-1.88;80.38
3844;BME280;1937;51.444;6.484;2023-02-28T06:57:36;65912.22;;;-2.20;80.50
3844;BME280;1937;51.444;6.484;2023-02-28T07:00:07;65929.97;;;-2.04;80.37
3844;BME280;1937;51.444;6.484;2023-02-28T07:02:37;65921.81;;;-2.16;79.89
3844;BME280;1937;51.444;6.484;2023-02-28T07:05:07;65923.09;;;-1.99;80.42
3844;BME280;1937;51.444;6.484;2023-02-28T07:07:37;65952.09;;;-1.83;79.69
3844;BME280;1937;51.444;6.484;2023-02-28T07:10:11;65931.13;;;-1.70;79.70
3844;BME280;1937;51.444;6.484;2023-02-28T07:12:41;65948.91;;;-1.66;79.13
3844;BME280;1937;51.444;6.484;2023-02-28T07:15:11;65926.78;;;-1.65;79.04
3844;BME280;1937;51.444;6.484;2023-02-28T07:17:40;65939.59;;;-1.45;78.62
3844;BME280;1937;51.444;6.484;2023-02-28T07:20:10;65965.88;;;-1.37;78.34
3844;BME280;1937;51.444;6.484;2023-02-28T07:22:40;65967.00;;;-1.36;78.27
3844;BME280;1937;51.444;6.484;2023-02-28T07:25:10;66015.63;;;-1.20;78.10
3844;BME280;1937;51.444;6.484;2023-02-28T07:27:39;65997.41;;;-1.20;78.27
3844;BME280;1937;51.444;6.484;2023-02-28T07:30:09;65980.19;;;-1.13;77.72
3844;BME280;1937;51.444;6.484;2023-02-28T07:32:39;66012.63;;;-0.94;77.27
3844;BME280;1937;51.444;6.484;2023-02-28T07:35:10;65990.16;;;-1.07;77.05
3844;BME280;1937;51.444;6.484;2023-02-28T07:37:40;66005.03;;;-0.60;75.95
3844;BME280;1937;51.444;6.484;2023-02-28T07:40:12;66026.19;;;-0.91;75.77
3844;BME280;1937;51.444;6.484;2023-02-28T07:42:41;66019.16;;;-0.57;75.87
3844;BME280;1937;51.444;6.484;2023-02-28T07:45:11;66163.75;;;-0.45;75.66
3844;BME280;1937;51.444;6.484;2023-02-28T07:47:40;66109.88;;;-0.32;75.39
3844;BME280;1937;51.444;6.484;2023-02-28T07:50:13;66062.31;;;-0.36;75.13
3844;BME280;1937;51.444;6.484;2023-02-28T07:52:44;66122.97;;;-0.25;75.15
3844;BME280;1937;51.444;6.484;2023-02-28T07:55:12;66085.94;;;0.00;74.27
3844;BME280;1937;51.444;6.484;2023-02-28T07:57:44;66093.75;;;-0.02;73.56
3844;BME280;1937;51.444;6.484;2023-02-28T08:00:14;66088.03;;;-0.18;73.43
3844;BME280;1937;51.444;6.484;2023-02-28T08:02:42;66080.03;;;0.02;72.73
3844;BME280;1937;51.444;6.484;2023-02-28T08:05:11;66087.44;;;0.30;72.70
3844;BME280;1937;51.444;6.484;2023-02-28T08:07:40;66149.09;;;0.45;71.86
3844;BME280;1937;51.444;6.484;2023-02-28T08:10:11;66101.44;;;0.52;71.29
3844;BME280;1937;51.444;6.484;2023-02-28T08:12:40;66171.59;;;0.69;71.41
3844;BME280;1937;51.444;6.484;2023-02-28T08:15:11;66167.50;;;0.88;71.40
3844;BME280;1937;51.444;6.484;2023-02-28T08:17:39;66183.22;;;1.10;69.75
3844;BME280;1937;51.444;6.484;2023-02-28T08:20:10;66209.09;;;1.22;68.85
3844;BME280;1937;51.444;6.484;2023-02-28T08:22:39;66350.97;;;2.04;68.11
3844;BME280;1937;51.444;6.484;2023-02-28T08:25:11;66313.09;;;2.14;65.81
3844;BME280;1937;51.444;6.484;2023-02-28T08:27:40;66356.66;;;2.85;65.27
3844;BME280;1937;51.444;6.484;2023-02-28T08:30:09;66438.00;;;3.39;62.93
3844;BME280;1937;51.444;6.484;2023-02-28T08:32:37;66485.31;;;3.58;61.55
3844;BME280;1937;51.444;6.484;2023-02-28T08:35:10;66508.88;;;3.90;60.84
3844;BME280;1937;51.444;6.484;2023-02-28T08:37:39;66536.88;;;3.90;59.56
3844;BME280;1937;51.444;6.484;2023-02-28T08:40:11;66516.50;;;4.17;58.67
3844;BME280;1937;51.444;6.484;2023-02-28T08:42:45;66530.41;;;4.34;58.17
3844;BME280;1937;51.444;6.484;2023-02-28T08:45:16;66516.44;;;4.44;58.43
3844;BME280;1937;51.444;6.484;2023-02-28T08:47:44;66524.19;;;4.80;57.83
3844;BME280;1937;51.444;6.484;2023-02-28T08:50:12;66605.66;;;5.18;56.58
3844;BME280;1937;51.444;6.484;2023-02-28T08:52:43;66567.88;;;4.98;54.80
3844;BME280;1937;51.444;6.484;2023-02-28T08:55:13;66615.63;;;5.35;54.56
3844;BME280;1937;51.444;6.484;2023-02-28T08:57:43;66579.16;;;5.26;54.79
3844;BME280;1937;51.444;6.484;2023-02-28T09:00:14;66460.63;;;4.26;54.83
3844;BME280;1937;51.444;6.484;2023-02-28T09:02:42;66444.13;;;4.52;55.68
3844;BME280;1937;51.444;6.484;2023-02-28T09:05:11;66525.78;;;4.88;53.30
3844;BME280;1937;51.444;6.484;2023-02-28T09:07:40;66561.38;;;5.15;52.11
3844;BME280;1937;51.444;6.484;2023-02-28T09:10:09;66543.47;;;5.10;51.87
3844;BME280;1937;51.444;6.484;2023-02-28T09:12:39;66521.75;;;5.16;51.25
3844;BME280;1937;51.444;6.484;2023-02-28T09:15:10;66543.13;;;4.92;50.34
3844;BME280;1937;51.444;6.484;2023-02-28T09:17:38;66549.38;;;4.93;50.35
3844;BME280;1937;51.444;6.484;2023-02-28T09:20:09;66511.38;;;4.75;51.53
3844;BME280;1937;51.444;6.484;2023-02-28T09:22:38;66551.19;;;5.15;49.70
3844;BME280;1937;51.444;6.484;2023-02-28T09:25:08;66503.97;;;4.73;49.36
3844;BME280;1937;51.444;6.484;2023-02-28T09:27:36;66518.88;;;4.82;49.10
3844;BME280;1937;51.444;6.484;2023-02-28T09:30:06;66460.97;;;4.60;48.90
3844;BME280;1937;51.444;6.484;2023-02-28T09:32:35;66435.19;;;4.58;48.57
3844;BME280;1937;51.444;6.484;2023-02-28T09:35:04;66462.19;;;4.66;48.11
3844;BME280;1937;51.444;6.484;2023-02-28T09:37:33;66494.28;;;5.01;48.29
3844;BME280;1937;51.444;6.484;2023-02-28T09:40:01;66485.22;;;4.86;48.27
3844;BME280;1937;51.444;6.484;2023-02-28T09:42:33;66504.53;;;4.89;48.24
3844;BME280;1937;51.444;6.484;2023-02-28T09:45:05;66552.50;;;5.25;47.37
3844;BME280;1937;51.444;6.484;2023-02-28T09:47:38;66538.69;;;5.13;47.83
3844;BME280;1937;51.444;6.484;2023-02-28T09:50:18;66473.22;;;4.95;48.24
3844;BME280;1937;51.444;6.484;2023-02-28T09:52:50;66563.38;;;5.14;47.04
3844;BME280;1937;51.444;6.484;2023-02-28T09:55:22;66547.66;;;5.23;46.79
3844;BME280;1937;51.444;6.484;2023-02-28T09:57:56;66522.06;;;5.34;45.62
3844;BME280;1937;51.444;6.484;2023-02-28T10:00:32;66629.31;;;5.70;46.39
3844;BME280;1937;51.444;6.484;2023-02-28T10:03:28;66526.63;;;5.69;44.57
3844;BME280;1937;51.444;6.484;2023-02-28T10:06:02;66654.34;;;6.05;45.08
3844;BME280;1937;51.444;6.484;2023-02-28T10:08:36;66653.00;;;6.27;46.01
3844;BME280;1937;51.444;6.484;2023-02-28T10:11:12;66539.03;;;5.67;44.35
3844;BME280;1937;51.444;6.484;2023-02-28T10:13:49;66551.47;;;5.80;44.86
3844;BME280;1937;51.444;6.484;2023-02-28T10:16:23;66592.41;;;6.00;44.63
3844;BME280;1937;51.444;6.484;2023-02-28T10:18:59;66583.84;;;5.82;45.08
3844;BME280;1937;51.444;6.484;2023-02-28T10:21:34;66551.56;;;5.69;44.10
3844;BME280;1937;51.444;6.484;2023-02-28T10:24:04;66577.53;;;5.45;44.56
3844;BME280;1937;51.444;6.484;2023-02-28T10:26:39;66547.03;;;5.54;44.34
3844;BME280;1937;51.444;6.484;2023-02-28T10:29:10;66506.31;;;5.43;43.99
3844;BME280;1937;51.444;6.484;2023-02-28T10:31:40;66451.59;;;4.90;46.23
3844;BME280;1937;51.444;6.484;2023-02-28T10:34:13;66546.75;;;4.88;46.04
3844;BME280;1937;51.444;6.484;2023-02-28T10:36:44;66635.41;;;5.62;45.72
3844;BME280;1937;51.444;6.484;2023-02-28T10:39:36;66567.06;;;5.62;45.53
3844;BME280;1937;51.444;6.484;2023-02-28T10:42:18;66588.88;;;5.77;46.30
3844;BME280;1937;51.444;6.484;2023-02-28T10:44:46;66683.25;;;6.20;44.39
3844;BME280;1937;51.444;6.484;2023-02-28T10:47:17;66599.47;;;5.84;44.79
3844;BME280;1937;51.444;6.484;2023-02-28T10:49:50;66590.81;;;6.08;45.27
3844;BME280;1937;51.444;6.484;2023-02-28T10:52:36;66590.09;;;5.83;45.28
3844;BME280;1937;51.444;6.484;2023-02-28T10:55:18;66523.69;;;5.47;45.05
3844;BME280;1937;51.444;6.484;2023-02-28T10:57:47;66540.38;;;5.61;44.73
3844;BME280;1937;51.444;6.484;2023-02-28T11:00:20;66434.56;;;5.04;45.42
3844;BME280;1937;51.444;6.484;2023-02-28T11:02:50;66514.31;;;5.14;45.50
3844;BME280;1937;51.444;6.484;2023-02-28T11:05:30;66493.78;;;4.58;45.86
3844;BME280;1937;51.444;6.484;2023-02-28T11:08:05;66486.38;;;5.18;46.03
3844;BME280;1937;51.444;6.484;2023-02-28T11:10:35;66527.66;;;5.14;46.35
3844;BME280;1937;51.444;6.484;2023-02-28T11:13:04;66476.66;;;5.14;46.79
3844;BME280;1937;51.444;6.484;2023-02-28T11:15:35;66435.13;;;4.89;45.15
3844;BME280;1937;51.444;6.484;2023-02-28T11:18:19;66488.16;;;5.24;44.97
3844;BME280;1937;51.444;6.484;2023-02-28T11:20:53;66520.50;;;5.42;45.22
3844;BME280;1937;51.444;6.484;2023-02-28T11:23:23;66569.50;;;5.89;44.77
3844;BME280;1937;51.444;6.484;2023-02-28T11:25:57;66624.50;;;6.20;45.02
3844;BME280;1937;51.444;6.484;2023-02-28T11:28:28;66557.56;;;5.88;44.63
3844;BME280;1937;51.444;6.484;2023-02-28T11:31:02;66590.22;;;6.07;44.85
